sensor_id;sensor_type;location;lat;lon;timestamp;pressure;altitude;pressure_sealevel;temperature;humidity
10948;BME280;5526;42.070;24.752;2022-12-18T00:01:25;99531.56;;;11.41;100.00
10948;BME280;5526;42.070;24.752;2022-12-18T00:03:55;99530.28;;;11.43;100.00
10948;BME280;5526;42.070;24.752;2022-12-18T00:06:24;99531.16;;;11.49;100.00
10948;BME280;5526;42.070;24.752;2022-12-18T00:08:53;99539.03;;;11.49;100.00
10948;BME280;5526;42.070;24.752;2022-12-18T00:11:25;99544.56;;;11.47;100.00
10948;BME280;5526;42.070;24.752;2022-12-18T00:13:55;99551.94;;;11.50;100.00
10948;BME280;5526;42.070;24.752;2022-12-18T00:16:25;99556.97;;;11.52;100.00
10948;BME280;5526;42.070;24.752;2022-12-18T00:18:55;99553.44;;;11.41;100.00
10948;BME280;5526;42.070;24.752;2022-12-18T00:21:23;99573.75;;;11.41;100.00
10948;BME280;5526;42.070;24.752;2022-12-18T00:23:51;99595.13;;;11.44;100.00
10948;BME280;5526;42.070;24.752;2022-12-18T00:26:21;99612.34;;;11.52;100.00
10948;BME280;5526;42.070;24.752;2022-12-18T00:28:52;99589.69;;;11.34;100.00
10948;BME280;5526;42.070;24.752;2022-12-18T00:31:22;99566.34;;;11.21;100.00
10948;BME280;5526;42.070;24.752;2022-12-18T00:33:51;99603.25;;;11.43;100.00
10948;BME280;5526;42.070;24.752;2022-12-18T00:36:22;99598.47;;;11.40;100.00
10948;BME280;5526;42.070;24.752;2022-12-18T00:38:50;99610.53;;;11.36;100.00
10948;BME280;5526;42.070;24.752;2022-12-18T00:41:18;99601.00;;;11.13;100.00
10948;BME280;5526;42.070;24.752;2022-12-18T00:44:01;99609.78;;;11.19;100.00
10948;BME280;5526;42.070;24.752;2022-12-18T00:46:29;99670.81;;;11.65;100.00
10948;BME280;5526;42.070;24.752;2022-12-18T00:48:57;99626.13;;;11.37;100.00
10948;BME280;5526;42.070;24.752;2022-12-18T00:51:26;99618.81;;;11.23;100.00
10948;BME280;5526;42.070;24.752;2022-12-18T00:53:54;99648.63;;;11.45;100.00
10948;BME280;5526;42.070;24.752;2022-12-18T00:56:22;99629.56;;;11.38;100.00
10948;BME280;5526;42.070;24.752;2022-12-18T00:58:50;99620.91;;;11.42;100.00
10948;BME280;5526;42.070;24.752;2022-12-18T01:01:19;99615.09;;;11.40;100.00
10948;BME280;5526;42.070;24.752;2022-12-18T01:03:47;99668.50;;;11.69;100.00
10948;BME280;5526;42.070;24.752;2022-12-18T01:06:16;99598.13;;;11.31;100.00
10948;BME280;5526;42.070;24.752;2022-12-18T01:08:44;99603.69;;;11.35;100.00
10948;BME280;5526;42.070;24.752;2022-12-18T01:11:14;99607.38;;;11.34;100.00
10948;BME280;5526;42.070;24.752;2022-12-18T01:13:42;99624.41;;;11.48;100.00
10948;BME280;5526;42.070;24.752;2022-12-18T01:16:11;99594.09;;;11.29;100.00
10948;BME280;5526;42.070;24.752;2022-12-18T01:18:41;99628.47;;;11.55;100.00
10948;BME280;5526;42.070;24.752;2022-12-18T01:21:10;99600.16;;;11.46;100.00
10948;BME280;5526;42.070;24.752;2022-12-18T01:23:38;99607.63;;;11.54;100.00
10948;BME280;5526;42.070;24.752;2022-12-18T01:26:07;99589.13;;;11.49;100.00
10948;BME280;5526;42.070;24.752;2022-12-18T01:28:35;99651.34;;;11.88;100.00
10948;BME280;5526;42.070;24.752;2022-12-18T01:31:14;99638.06;;;11.83;100.00
10948;BME280;5526;42.070;24.752;2022-12-18T01:33:44;99607.28;;;11.67;100.00
10948;BME280;5526;42.070;24.752;2022-12-18T01:36:17;99591.41;;;11.62;100.00
10948;BME280;5526;42.070;24.752;2022-12-18T01:38:45;99597.56;;;11.67;100.00
10948;BME280;5526;42.070;24.752;2022-12-18T01:41:14;99574.91;;;11.50;100.00
10948;BME280;5526;42.070;24.752;2022-12-18T01:43:44;99581.31;;;11.59;100.00
10948;BME280;5526;42.070;24.752;2022-12-18T01:46:12;99581.97;;;11.66;100.00
10948;BME280;5526;42.070;24.752;2022-12-18T01:48:40;99599.81;;;11.80;100.00
10948;BME280;5526;42.070;24.752;2022-12-18T01:51:11;99616.91;;;11.99;100.00
10948;BME280;5526;42.070;24.752;2022-12-18T01:53:41;99596.94;;;11.82;100.00
10948;BME280;5526;42.070;24.752;2022-12-18T01:56:13;99612.59;;;11.93;100.00
10948;BME280;5526;42.070;24.752;2022-12-18T01:58:48;99606.44;;;11.83;100.00
10948;BME280;5526;42.070;24.752;2022-12-18T02:01:17;99611.47;;;11.84;100.00
10948;BME280;5526;42.070;24.752;2022-12-18T02:03:45;99624.97;;;11.88;100.00
10948;BME280;5526;42.070;24.752;2022-12-18T02:06:16;99609.06;;;11.83;100.00
10948;BME280;5526;42.070;24.752;2022-12-18T02:09:01;99666.41;;;12.14;100.00
10948;BME280;5526;42.070;24.752;2022-12-18T02:11:39;99671.69;;;12.14;100.00
10948;BME280;5526;42.070;24.752;2022-12-18T02:14:16;99670.91;;;12.13;100.00
10948;BME280;5526;42.070;24.752;2022-12-18T02:16:51;99624.47;;;11.91;100.00
10948;BME280;5526;42.070;24.752;2022-12-18T02:19:34;99639.00;;;11.93;100.00
10948;BME280;5526;42.070;24.752;2022-12-18T02:22:19;99613.66;;;11.71;100.00
10948;BME280;5526;42.070;24.752;2022-12-18T02:24:58;99672.06;;;12.01;100.00
10948;BME280;5526;42.070;24.752;2022-12-18T02:27:30;99670.09;;;11.91;100.00
10948;BME280;5526;42.070;24.752;2022-12-18T02:30:00;99645.94;;;11.78;100.00
10948;BME280;5526;42.070;24.752;2022-12-18T02:32:31;99639.38;;;11.80;100.00
10948;BME280;5526;42.070;24.752;2022-12-18T02:35:03;99626.63;;;11.72;100.00
10948;BME280;5526;42.070;24.752;2022-12-18T02:37:32;99627.72;;;11.76;100.00
10948;BME280;5526;42.070;24.752;2022-12-18T02:40:04;99617.13;;;11.71;100.00
10948;BME280;5526;42.070;24.752;2022-12-18T02:42:34;99664.16;;;12.01;100.00
10948;BME280;5526;42.070;24.752;2022-12-18T02:45:02;99598.84;;;11.65;100.00
10948;BME280;5526;42.070;24.752;2022-12-18T02:47:32;99636.78;;;11.85;100.00
10948;BME280;5526;42.070;24.752;2022-12-18T02:50:06;99629.19;;;11.89;100.00
10948;BME280;5526;42.070;24.752;2022-12-18T02:52:39;99620.41;;;11.83;100.00
10948;BME280;5526;42.070;24.752;2022-12-18T02:55:18;99606.09;;;11.74;100.00
10948;BME280;5526;42.070;24.752;2022-12-18T02:57:53;99661.56;;;12.06;100.00
10948;BME280;5526;42.070;24.752;2022-12-18T03:00:24;99646.66;;;11.95;100.00
10948;BME280;5526;42.070;24.752;2022-12-18T03:02:57;99623.34;;;11.87;100.00
10948;BME280;5526;42.070;24.752;2022-12-18T03:05:31;99647.59;;;12.05;100.00
10948;BME280;5526;42.070;24.752;2022-12-18T03:08:05;99638.22;;;11.93;100.00
10948;BME280;5526;42.070;24.752;2022-12-18T03:10:37;99643.50;;;11.93;100.00
10948;BME280;5526;42.070;24.752;2022-12-18T03:13:12;99637.09;;;11.89;100.00
10948;BME280;5526;42.070;24.752;2022-12-18T03:15:43;99663.16;;;12.07;100.00
10948;BME280;5526;42.070;24.752;2022-12-18T03:18:17;99636.63;;;11.92;100.00
10948;BME280;5526;42.070;24.752;2022-12-18T03:20:47;99644.03;;;11.95;100.00
10948;BME280;5526;42.070;24.752;2022-12-18T03:23:19;99659.31;;;11.93;100.00
10948;BME280;5526;42.070;24.752;2022-12-18T03:25:51;99637.34;;;11.66;100.00
10948;BME280;5526;42.070;24.752;2022-12-18T03:28:22;99659.06;;;11.73;100.00
10948;BME280;5526;42.070;24.752;2022-12-18T03:30:54;99680.06;;;11.68;100.00
10948;BME280;5526;42.070;24.752;2022-12-18T03:33:28;99677.38;;;11.63;100.00
10948;BME280;5526;42.070;24.752;2022-12-18T03:35:57;99719.78;;;11.78;100.00
10948;BME280;5526;42.070;24.752;2022-12-18T03:38:25;99663.66;;;11.44;100.00
10948;BME280;5526;42.070;24.752;2022-12-18T03:40:58;99663.16;;;11.47;100.00
10948;BME280;5526;42.070;24.752;2022-12-18T03:43:36;99704.66;;;11.73;100.00
10948;BME280;5526;42.070;24.752;2022-12-18T03:46:13;99720.06;;;11.81;100.00
10948;BME280;5526;42.070;24.752;2022-12-18T03:48:44;99686.88;;;11.64;100.00
10948;BME280;5526;42.070;24.752;2022-12-18T03:51:18;99691.38;;;11.63;100.00
10948;BME280;5526;42.070;24.752;2022-12-18T03:53:52;99699.56;;;11.67;100.00
10948;BME280;5526;42.070;24.752;2022-12-18T03:56:24;99696.94;;;11.67;100.00
10948;BME280;5526;42.070;24.752;2022-12-18T03:58:55;99744.88;;;12.02;100.00
10948;BME280;5526;42.070;24.752;2022-12-18T04:01:29;99707.69;;;11.82;100.00
10948;BME280;5526;42.070;24.752;2022-12-18T04:04:00;99702.84;;;11.74;100.00
10948;BME280;5526;42.070;24.752;2022-12-18T04:06:29;99678.25;;;11.68;100.00
10948;BME280;5526;42.070;24.752;2022-12-18T04:08:58;99722.56;;;11.88;100.00
10948;BME280;5526;42.070;24.752;2022-12-18T04:11:26;99699.16;;;11.75;100.00
10948;BME280;5526;42.070;24.752;2022-12-18T04:13:57;99725.19;;;11.88;100.00
10948;BME280;5526;42.070;24.752;2022-12-18T04:16:26;99712.91;;;11.77;100.00
10948;BME280;5526;42.070;24.752;2022-12-18T04:18:54;99702.69;;;11.64;100.00
10948;BME280;5526;42.070;24.752;2022-12-18T04:21:22;99748.94;;;11.88;100.00
10948;BME280;5526;42.070;24.752;2022-12-18T04:23:50;99734.31;;;11.64;100.00
10948;BME280;5526;42.070;24.752;2022-12-18T04:26:18;99696.50;;;11.37;100.00
10948;BME280;5526;42.070;24.752;2022-12-18T04:28:46;99702.13;;;11.29;100.00
10948;BME280;5526;42.070;24.752;2022-12-18T04:31:15;99748.94;;;11.55;100.00
10948;BME280;5526;42.070;24.752;2022-12-18T04:33:43;99740.63;;;11.46;100.00
10948;BME280;5526;42.070;24.752;2022-12-18T04:36:11;99739.91;;;11.51;100.00
10948;BME280;5526;42.070;24.752;2022-12-18T04:38:39;99736.97;;;11.47;100.00
10948;BME280;5526;42.070;24.752;2022-12-18T04:41:07;99728.13;;;11.37;100.00
10948;BME280;5526;42.070;24.752;2022-12-18T04:43:34;99735.84;;;11.43;100.00
10948;BME280;5526;42.070;24.752;2022-12-18T04:46:04;99737.13;;;11.41;100.00
10948;BME280;5526;42.070;24.752;2022-12-18T04:48:34;99777.16;;;11.71;100.00
10948;BME280;5526;42.070;24.752;2022-12-18T04:51:02;99776.03;;;11.67;100.00
10948;BME280;5526;42.070;24.752;2022-12-18T04:53:30;99740.25;;;11.38;100.00
10948;BME280;5526;42.070;24.752;2022-12-18T04:56:06;99757.47;;;11.45;100.00
10948;BME280;5526;42.070;24.752;2022-12-18T04:58:34;99774.56;;;11.43;100.00
10948;BME280;5526;42.070;24.752;2022-12-18T05:01:02;99742.47;;;11.13;100.00
10948;BME280;5526;42.070;24.752;2022-12-18T05:03:30;99815.88;;;11.37;100.00
10948;BME280;5526;42.070;24.752;2022-12-18T05:06:00;99761.28;;;11.05;100.00
10948;BME280;5526;42.070;24.752;2022-12-18T05:08:28;99780.00;;;11.20;100.00
10948;BME280;5526;42.070;24.752;2022-12-18T05:10:59;99775.56;;;11.09;100.00
10948;BME280;5526;42.070;24.752;2022-12-18T05:13:28;99785.50;;;11.18;100.00
10948;BME280;5526;42.070;24.752;2022-12-18T05:15:56;99779.09;;;11.14;100.00
10948;BME280;5526;42.070;24.752;2022-12-18T05:18:24;99769.06;;;11.11;100.00
10948;BME280;5526;42.070;24.752;2022-12-18T05:20:52;99778.09;;;11.15;100.00
10948;BME280;5526;42.070;24.752;2022-12-18T05:23:22;99835.59;;;11.35;100.00
10948;BME280;5526;42.070;24.752;2022-12-18T05:25:52;99827.66;;;11.18;100.00
10948;BME280;5526;42.070;24.752;2022-12-18T05:28:20;99837.22;;;11.08;100.00
10948;BME280;5526;42.070;24.752;2022-12-18T05:30:49;99816.97;;;10.97;100.00
10948;BME280;5526;42.070;24.752;2022-12-18T05:33:17;99802.84;;;10.86;100.00
10948;BME280;5526;42.070;24.752;2022-12-18T05:35:50;99840.88;;;11.07;100.00
10948;BME280;5526;42.070;24.752;2022-12-18T05:38:18;99868.81;;;11.08;100.00
10948;BME280;5526;42.070;24.752;2022-12-18T05:40:49;99809.66;;;10.71;100.00
10948;BME280;5526;42.070;24.752;2022-12-18T05:43:18;99823.19;;;10.63;100.00
10948;BME280;5526;42.070;24.752;2022-12-18T05:45:48;99856.84;;;10.89;100.00
10948;BME280;5526;42.070;24.752;2022-12-18T05:48:17;99843.88;;;10.71;100.00
10948;BME280;5526;42.070;24.752;2022-12-18T05:50:46;99852.94;;;10.63;100.00
10948;BME280;5526;42.070;24.752;2022-12-18T05:53:15;99830.41;;;10.56;100.00
10948;BME280;5526;42.070;24.752;2022-12-18T05:55:44;99889.03;;;10.91;100.00
10948;BME280;5526;42.070;24.752;2022-12-18T05:58:14;99839.66;;;10.58;100.00
10948;BME280;5526;42.070;24.752;2022-12-18T06:00:44;99847.13;;;10.50;100.00
10948;BME280;5526;42.070;24.752;2022-12-18T06:03:13;99845.63;;;10.54;100.00
10948;BME280;5526;42.070;24.752;2022-12-18T06:05:42;99837.63;;;10.49;100.00
10948;BME280;5526;42.070;24.752;2022-12-18T06:08:10;99850.44;;;10.57;100.00
10948;BME280;5526;42.070;24.752;2022-12-18T06:10:39;99855.38;;;10.53;100.00
10948;BME280;5526;42.070;24.752;2022-12-18T06:13:07;99857.06;;;10.59;100.00
10948;BME280;5526;42.070;24.752;2022-12-18T06:15:44;99861.38;;;10.77;100.00
10948;BME280;5526;42.070;24.752;2022-12-18T06:18:12;99904.13;;;10.95;100.00
10948;BME280;5526;42.070;24.752;2022-12-18T06:20:40;99896.13;;;11.02;100.00
10948;BME280;5526;42.070;24.752;2022-12-18T06:23:08;99928.75;;;11.29;100.00
10948;BME280;5526;42.070;24.752;2022-12-18T06:25:38;99909.00;;;11.15;100.00
10948;BME280;5526;42.070;24.752;2022-12-18T06:28:06;99893.34;;;11.08;100.00
10948;BME280;5526;42.070;24.752;2022-12-18T06:30:33;99913.06;;;11.06;100.00
10948;BME280;5526;42.070;24.752;2022-12-18T06:33:03;99899.50;;;11.14;100.00
10948;BME280;5526;42.070;24.752;2022-12-18T06:35:32;99897.34;;;11.11;100.00
10948;BME280;5526;42.070;24.752;2022-12-18T06:38:01;99897.88;;;11.13;100.00
10948;BME280;5526;42.070;24.752;2022-12-18T06:40:29;99903.06;;;11.08;100.00
10948;BME280;5526;42.070;24.752;2022-12-18T06:42:57;99939.97;;;11.36;100.00
10948;BME280;5526;42.070;24.752;2022-12-18T06:45:25;99959.41;;;11.46;100.00
10948;BME280;5526;42.070;24.752;2022-12-18T06:47:53;99937.81;;;11.33;100.00
10948;BME280;5526;42.070;24.752;2022-12-18T06:50:23;99949.13;;;11.33;100.00
10948;BME280;5526;42.070;24.752;2022-12-18T06:52:51;99911.41;;;11.16;100.00
10948;BME280;5526;42.070;24.752;2022-12-18T06:55:19;99937.91;;;11.38;100.00
10948;BME280;5526;42.070;24.752;2022-12-18T06:57:46;99945.22;;;11.36;100.00
10948;BME280;5526;42.070;24.752;2022-12-18T07:00:15;99935.19;;;11.33;100.00
10948;BME280;5526;42.070;24.752;2022-12-18T07:02:43;99917.34;;;11.23;100.00
10948;BME280;5526;42.070;24.752;2022-12-18T07:05:10;99995.22;;;11.59;100.00
10948;BME280;5526;42.070;24.752;2022-12-18T07:07:40;99928.22;;;11.27;100.00
10948;BME280;5526;42.070;24.752;2022-12-18T07:10:08;99940.41;;;11.44;100.00
10948;BME280;5526;42.070;24.752;2022-12-18T07:12:36;99996.44;;;11.79;100.00
10948;BME280;5526;42.070;24.752;2022-12-18T07:15:05;99947.25;;;11.45;100.00
10948;BME280;5526;42.070;24.752;2022-12-18T07:17:33;99963.22;;;11.39;100.00
10948;BME280;5526;42.070;24.752;2022-12-18T07:20:01;99979.69;;;11.46;100.00
10948;BME280;5526;42.070;24.752;2022-12-18T07:22:29;99980.78;;;11.33;100.00
10948;BME280;5526;42.070;24.752;2022-12-18T07:24:59;99953.47;;;11.11;100.00
10948;BME280;5526;42.070;24.752;2022-12-18T07:27:27;99951.66;;;11.00;100.00
10948;BME280;5526;42.070;24.752;2022-12-18T07:29:55;99983.31;;;11.17;100.00
10948;BME280;5526;42.070;24.752;2022-12-18T07:32:23;99994.00;;;11.22;100.00
10948;BME280;5526;42.070;24.752;2022-12-18T07:34:51;99968.66;;;11.21;100.00
10948;BME280;5526;42.070;24.752;2022-12-18T07:37:18;99996.84;;;11.09;100.00
10948;BME280;5526;42.070;24.752;2022-12-18T07:39:46;99966.09;;;10.86;100.00
10948;BME280;5526;42.070;24.752;2022-12-18T07:42:16;99963.81;;;10.90;100.00
10948;BME280;5526;42.070;24.752;2022-12-18T07:44:59;99965.88;;;10.88;100.00
10948;BME280;5526;42.070;24.752;2022-12-18T07:47:27;99990.81;;;10.97;100.00
10948;BME280;5526;42.070;24.752;2022-12-18T07:49:55;99987.94;;;10.98;100.00
10948;BME280;5526;42.070;24.752;2022-12-18T07:52:23;99956.25;;;10.82;100.00
10948;BME280;5526;42.070;24.752;2022-12-18T07:54:51;100015.88;;;11.11;100.00
10948;BME280;5526;42.070;24.752;2022-12-18T07:57:21;99970.78;;;10.96;100.00
10948;BME280;5526;42.070;24.752;2022-12-18T07:59:49;100018.03;;;11.25;100.00
10948;BME280;5526;42.070;24.752;2022-12-18T08:02:16;100013.63;;;11.42;100.00
10948;BME280;5526;42.070;24.752;2022-12-18T08:04:44;100032.59;;;11.56;100.00
10948;BME280;5526;42.070;24.752;2022-12-18T08:07:13;99987.41;;;11.36;100.00
10948;BME280;5526;42.070;24.752;2022-12-18T08:09:41;100028.47;;;11.60;100.00
10948;BME280;5526;42.070;24.752;2022-12-18T08:12:08;100004.56;;;11.50;100.00
10948;BME280;5526;42.070;24.752;2022-12-18T08:14:38;100045.66;;;11.74;100.00
10948;BME280;5526;42.070;24.752;2022-12-18T08:17:05;100050.69;;;11.75;100.00
10948;BME280;5526;42.070;24.752;2022-12-18T08:19:33;100066.16;;;11.83;100.00
10948;BME280;5526;42.070;24.752;2022-12-18T08:22:01;100069.59;;;11.84;100.00
10948;BME280;5526;42.070;24.752;2022-12-18T08:24:29;100059.13;;;11.61;100.00
10948;BME280;5526;42.070;24.752;2022-12-18T08:26:57;100052.44;;;11.58;100.00
10948;BME280;5526;42.070;24.752;2022-12-18T08:29:25;100053.88;;;11.38;100.00
10948;BME280;5526;42.070;24.752;2022-12-18T08:31:54;100017.94;;;11.20;100.00
10948;BME280;5526;42.070;24.752;2022-12-18T08:34:22;100024.25;;;11.08;100.00
10948;BME280;5526;42.070;24.752;2022-12-18T08:36:50;100056.97;;;11.35;100.00
10948;BME280;5526;42.070;24.752;2022-12-18T08:39:18;100018.63;;;11.16;100.00
10948;BME280;5526;42.070;24.752;2022-12-18T08:41:45;100039.19;;;11.30;100.00
10948;BME280;5526;42.070;24.752;2022-12-18T08:44:33;100013.94;;;11.18;100.00
10948;BME280;5526;42.070;24.752;2022-12-18T08:47:08;100013.34;;;11.16;100.00
10948;BME280;5526;42.070;24.752;2022-12-18T08:49:36;100018.16;;;11.07;100.00
10948;BME280;5526;42.070;24.752;2022-12-18T08:52:04;100053.41;;;11.29;100.00
10948;BME280;5526;42.070;24.752;2022-12-18T08:54:32;100061.41;;;11.46;100.00
10948;BME280;5526;42.070;24.752;2022-12-18T08:57:00;100072.72;;;11.58;100.00
10948;BME280;5526;42.070;24.752;2022-12-18T08:59:28;99995.72;;;11.16;100.00
10948;BME280;5526;42.070;24.752;2022-12-18T09:01:56;100036.19;;;11.38;100.00
10948;BME280;5526;42.070;24.752;2022-12-18T09:04:25;100001.34;;;11.08;100.00
10948;BME280;5526;42.070;24.752;2022-12-18T09:06:53;100011.06;;;11.19;100.00
10948;BME280;5526;42.070;24.752;2022-12-18T09:09:21;100017.13;;;11.20;100.00
10948;BME280;5526;42.070;24.752;2022-12-18T09:11:49;100018.47;;;11.22;100.00
10948;BME280;5526;42.070;24.752;2022-12-18T09:14:16;100051.69;;;11.35;100.00
10948;BME280;5526;42.070;24.752;2022-12-18T09:16:44;100042.88;;;11.29;100.00
10948;BME280;5526;42.070;24.752;2022-12-18T09:19:13;100061.06;;;11.54;100.00
10948;BME280;5526;42.070;24.752;2022-12-18T09:21:42;100061.28;;;11.64;100.00
10948;BME280;5526;42.070;24.752;2022-12-18T09:24:12;100033.78;;;11.48;100.00
10948;BME280;5526;42.070;24.752;2022-12-18T09:26:40;100018.56;;;11.39;100.00
10948;BME280;5526;42.070;24.752;2022-12-18T09:29:08;100042.59;;;11.54;100.00
10948;BME280;5526;42.070;24.752;2022-12-18T09:31:36;100076.38;;;11.80;100.00
10948;BME280;5526;42.070;24.752;2022-12-18T09:34:05;100003.66;;;11.44;100.00
10948;BME280;5526;42.070;24.752;2022-12-18T09:36:33;100043.16;;;11.67;100.00
10948;BME280;5526;42.070;24.752;2022-12-18T09:39:03;100052.53;;;11.75;100.00
10948;BME280;5526;42.070;24.752;2022-12-18T09:41:40;100030.13;;;11.61;100.00
10948;BME280;5526;42.070;24.752;2022-12-18T09:44:16;100025.47;;;11.68;100.00
10948;BME280;5526;42.070;24.752;2022-12-18T09:46:49;100044.72;;;11.80;100.00
10948;BME280;5526;42.070;24.752;2022-12-18T09:49:21;100020.31;;;11.73;100.00
10948;BME280;5526;42.070;24.752;2022-12-18T09:51:52;100030.72;;;11.79;100.00
10948;BME280;5526;42.070;24.752;2022-12-18T09:54:29;100073.81;;;12.13;99.60
10948;BME280;5526;42.070;24.752;2022-12-18T09:57:00;100002.09;;;11.60;98.60
10948;BME280;5526;42.070;24.752;2022-12-18T09:59:32;100022.97;;;11.73;98.81
10948;BME280;5526;42.070;24.752;2022-12-18T10:02:15;100035.25;;;11.67;98.93
10948;BME280;5526;42.070;24.752;2022-12-18T10:04:54;100035.69;;;11.76;99.39
10948;BME280;5526;42.070;24.752;2022-12-18T10:07:37;100066.84;;;11.79;99.80
10948;BME280;5526;42.070;24.752;2022-12-18T10:10:18;100026.78;;;11.54;100.00
10948;BME280;5526;42.070;24.752;2022-12-18T10:12:58;100078.13;;;11.74;100.00
10948;BME280;5526;42.070;24.752;2022-12-18T10:15:31;100062.75;;;11.71;100.00
10948;BME280;5526;42.070;24.752;2022-12-18T10:18:12;100014.06;;;11.51;100.00
10948;BME280;5526;42.070;24.752;2022-12-18T10:20:45;100027.09;;;11.57;100.00
10948;BME280;5526;42.070;24.752;2022-12-18T10:23:20;100051.25;;;11.77;99.67
10948;BME280;5526;42.070;24.752;2022-12-18T10:25:56;100018.19;;;11.47;100.00
10948;BME280;5526;42.070;24.752;2022-12-18T10:28:27;100024.38;;;11.52;100.00
10948;BME280;5526;42.070;24.752;2022-12-18T10:31:05;100005.91;;;11.52;100.00
10948;BME280;5526;42.070;24.752;2022-12-18T10:33:34;99995.84;;;11.49;100.00
10948;BME280;5526;42.070;24.752;2022-12-18T10:36:03;100012.78;;;11.65;100.00
10948;BME280;5526;42.070;24.752;2022-12-18T10:38:32;100015.41;;;11.53;100.00
10948;BME280;5526;42.070;24.752;2022-12-18T10:41:06;100039.59;;;11.50;100.00
10948;BME280;5526;42.070;24.752;2022-12-18T10:43:38;100022.66;;;11.46;100.00
10948;BME280;5526;42.070;24.752;2022-12-18T10:46:14;100031.81;;;11.55;100.00
10948;BME280;5526;42.070;24.752;2022-12-18T10:48:55;100068.94;;;11.65;100.00
10948;BME280;5526;42.070;24.752;2022-12-18T10:51:25;100038.59;;;11.40;100.00
10948;BME280;5526;42.070;24.752;2022-12-18T10:53:57;100048.78;;;11.48;100.00
10948;BME280;5526;42.070;24.752;2022-12-18T10:56:29;100067.84;;;11.38;100.00
10948;BME280;5526;42.070;24.752;2022-12-18T10:59:00;100031.19;;;11.25;100.00
10948;BME280;5526;42.070;24.752;2022-12-18T11:01:35;100072.84;;;11.63;100.00
10948;BME280;5526;42.070;24.752;2022-12-18T11:04:17;100048.91;;;11.53;100.00
10948;BME280;5526;42.070;24.752;2022-12-18T11:06:59;100112.56;;;11.96;100.00
10948;BME280;5526;42.070;24.752;2022-12-18T11:09:28;100051.91;;;11.45;100.00
10948;BME280;5526;42.070;24.752;2022-12-18T11:12:00;100055.47;;;11.39;100.00
10948;BME280;5526;42.070;24.752;2022-12-18T11:14:32;100059.38;;;11.36;100.00
10948;BME280;5526;42.070;24.752;2022-12-18T11:17:01;100103.47;;;11.64;99.71
10948;BME280;5526;42.070;24.752;2022-12-18T11:19:34;100099.22;;;11.51;97.68
10948;BME280;5526;42.070;24.752;2022-12-18T11:22:18;100125.69;;;11.56;97.01
10948;BME280;5526;42.070;24.752;2022-12-18T11:24:53;100086.22;;;11.22;97.77
10948;BME280;5526;42.070;24.752;2022-12-18T11:27:23;100089.50;;;11.29;98.96
10948;BME280;5526;42.070;24.752;2022-12-18T11:29:52;100067.75;;;11.22;100.00
10948;BME280;5526;42.070;24.752;2022-12-18T11:32:33;100089.16;;;11.25;100.00
10948;BME280;5526;42.070;24.752;2022-12-18T11:35:10;100078.53;;;10.74;100.00
10948;BME280;5526;42.070;24.752;2022-12-18T11:37:43;100055.47;;;10.35;100.00
10948;BME280;5526;42.070;24.752;2022-12-18T11:40:17;100065.22;;;10.46;100.00
10948;BME280;5526;42.070;24.752;2022-12-18T11:42:51;100080.00;;;10.70;100.00
10948;BME280;5526;42.070;24.752;2022-12-18T11:45:27;100070.97;;;10.55;100.00
10948;BME280;5526;42.070;24.752;2022-12-18T11:48:03;100116.63;;;10.60;100.00
10948;BME280;5526;42.070;24.752;2022-12-18T11:50:45;100088.50;;;10.31;100.00
10948;BME280;5526;42.070;24.752;2022-12-18T11:53:14;100111.59;;;10.59;100.00
10948;BME280;5526;42.070;24.752;2022-12-18T11:55:50;100100.69;;;10.44;100.00
10948;BME280;5526;42.070;24.752;2022-12-18T11:58:29;100097.28;;;10.55;100.00
10948;BME280;5526;42.070;24.752;2022-12-18T12:01:11;100089.50;;;10.60;100.00
10948;BME280;5526;42.070;24.752;2022-12-18T12:03:55;100076.34;;;10.60;100.00
10948;BME280;5526;42.070;24.752;2022-12-18T12:06:35;100130.97;;;10.87;100.00
10948;BME280;5526;42.070;24.752;2022-12-18T12:09:13;100081.56;;;10.48;100.00
10948;BME280;5526;42.070;24.752;2022-12-18T12:11:54;100091.22;;;10.66;100.00
10948;BME280;5526;42.070;24.752;2022-12-18T12:14:36;100074.97;;;10.57;100.00
10948;BME280;5526;42.070;24.752;2022-12-18T12:17:09;100137.53;;;11.08;100.00
10948;BME280;5526;42.070;24.752;2022-12-18T12:19:47;100067.66;;;10.71;100.00
10948;BME280;5526;42.070;24.752;2022-12-18T12:22:24;100080.00;;;10.82;100.00
10948;BME280;5526;42.070;24.752;2022-12-18T12:25:03;100067.31;;;10.79;100.00
10948;BME280;5526;42.070;24.752;2022-12-18T12:27:41;100129.38;;;11.21;100.00
10948;BME280;5526;42.070;24.752;2022-12-18T12:30:18;100110.03;;;10.92;100.00
10948;BME280;5526;42.070;24.752;2022-12-18T12:33:02;100088.28;;;10.85;100.00
10948;BME280;5526;42.070;24.752;2022-12-18T12:35:42;100148.88;;;11.31;100.00
10948;BME280;5526;42.070;24.752;2022-12-18T12:38:14;100103.63;;;10.88;100.00
10948;BME280;5526;42.070;24.752;2022-12-18T12:40:46;100107.03;;;10.77;100.00
10948;BME280;5526;42.070;24.752;2022-12-18T12:43:32;100097.28;;;10.78;100.00
10948;BME280;5526;42.070;24.752;2022-12-18T12:46:04;100112.97;;;10.73;100.00
10948;BME280;5526;42.070;24.752;2022-12-18T12:48:40;100116.88;;;10.70;100.00
10948;BME280;5526;42.070;24.752;2022-12-18T12:51:14;100137.16;;;10.93;100.00
10948;BME280;5526;42.070;24.752;2022-12-18T12:53:43;100147.22;;;10.73;100.00
10948;BME280;5526;42.070;24.752;2022-12-18T12:56:15;100188.34;;;10.97;100.00
10948;BME280;5526;42.070;24.752;2022-12-18T12:58:53;100138.03;;;10.64;100.00
10948;BME280;5526;42.070;24.752;2022-12-18T13:01:32;100149.94;;;10.66;100.00
10948;BME280;5526;42.070;24.752;2022-12-18T13:04:12;100182.81;;;10.75;100.00
10948;BME280;5526;42.070;24.752;2022-12-18T13:06:46;100167.38;;;10.79;100.00